Observations for MIDDLE WALLOP, United Kingdom (EGVP)

EGVP 231111Z 22007KT 9999 FEW006 BKN007 15/14 Q1017 GRN TEMPO 5000 -DZ BKN006 YLO1
EGVP 231050Z 22007KT 9999 BKN006 15/14 Q1017 YLO1 BECMG BKN007 GRN  
EGVP 230950Z 21007KT 9999 -DZ BKN006 OVC013 14/13 Q1017 YLO1 TEMPO BKN007 GRN   
EGVP 230909Z 20009KT 7000 -DZ FEW005 BKN006 OVC013 14/13 Q1017 YLO1 TEMPO 9999 NSW BKN007 GRN
EGVP 230850Z 20008KT 9000 -DZ FEW004 BKN006 OVC014 13/13 Q1017 YLO1 TEMPO BKN007 GRN
EGVP 230750Z 20009KT 6000 -DZ FEW002 BKN005 13/12 Q1017 YLO1 NOSIG  
EGVP 230721Z 19007KT 5000 -RADZ FEW001 BKN004 12/12 Q1017 RERA YLO2 TEMPO BKN006 YLO1
EGVP 230650Z 18006KT 4500 RA SCT004 BKN006 12/11 Q1017 REDZ YLO2 TEMPO 5000 -RA BKN006 YLO1 
EGVP 230643Z 17006KT 4500 RADZ FEW004 OVC006 11/11 Q1017 YLO1
EGVP 230550Z 17005KT 9999 -RADZ BKN006 11/11 Q1018 YLO1 
EGVP 230450Z AUTO 21007KT 9999 // SCT031/// BKN038/// 11/10 Q1018   
EGVP 230350Z AUTO 21005KT 9000 // BKN050/// 11/09 Q1018 
EGVP 230250Z AUTO 24007KT 9999 // BKN039/// BKN210/// 11/09 Q1018   
EGVP 230150Z AUTO 23004KT 9999 // BKN039/// BKN180/// 10/09 Q1019   
EGVP 230050Z AUTO 23004KT 9999 // FEW043/// BKN160/// 10/08 Q1019   
EGVP 222350Z AUTO 23005KT 9999 // FEW023/// BKN210/// 10/08 Q1019   
EGVP 222250Z AUTO 26011KT 9999 // FEW018/// SCT024/// BKN044/// 10/09 Q1019 
EGVP 222150Z AUTO 26010KT 9999 // FEW044/// BKN050/// 11/08 Q1019   
EGVP 222050Z AUTO 25008KT 9999 // FEW050/// 11/08 Q1019 
EGVP 221950Z AUTO 26006KT 9999 // OVC050/// 11/08 Q1019 
EGVP 221850Z AUTO 27007KT 9999 // BKN049/// 11/08 Q1018 
EGVP 221750Z AUTO 29008KT 9999 // FEW024/// BKN050/// 11/08 Q1017   
EGVP 221650Z AUTO 28012KT 9999 // SCT032/// BKN041/// 11/08 Q1017   
EGVP 221550Z AUTO 28013KT 9999 // FEW036/// BKN050/// 12/07 Q1016   
EGVP 221450Z AUTO 28017G28KT 9999 // FEW039/// SCT045/// 13/06 Q1016
EGVP 221350Z AUTO 29017KT 9999 // FEW030/// BKN039/// 13/06 Q1016   
EGVP 221250Z AUTO 29015G25KT 9999 // BKN050/// 13/05 Q1015  
EGVP 221150Z AUTO 28017G27KT 9999 // SCT039/// 12/03 Q1015  
EGVP 221050Z AUTO 28019G30KT 9999 // SCT035/// 11/03 Q1015